sensor_id;sensor_type;location;lat;lon;timestamp;pressure;altitude;pressure_sealevel;temperature;humidity
79331;BME280;68797;49.782;19.054;2023-04-10T00:01:23;97988.69;;;6.53;83.80
79331;BME280;68797;49.782;19.054;2023-04-10T00:03:50;97985.13;;;6.63;83.29
79331;BME280;68797;49.782;19.054;2023-04-10T00:06:16;97980.78;;;6.56;83.47
79331;BME280;68797;49.782;19.054;2023-04-10T00:08:43;97978.97;;;6.70;82.89
79331;BME280;68797;49.782;19.054;2023-04-10T00:11:10;97971.03;;;6.73;82.86
79331;BME280;68797;49.782;19.054;2023-04-10T00:13:53;97964.81;;;6.83;82.49
79331;BME280;68797;49.782;19.054;2023-04-10T00:16:20;97963.97;;;6.78;82.81
79331;BME280;68797;49.782;19.054;2023-04-10T00:18:47;97971.84;;;6.89;82.21
79331;BME280;68797;49.782;19.054;2023-04-10T00:21:15;97964.78;;;6.91;81.69
79331;BME280;68797;49.782;19.054;2023-04-10T00:23:42;97949.84;;;6.85;81.72
79331;BME280;68797;49.782;19.054;2023-04-10T00:26:12;97960.41;;;6.85;81.97
79331;BME280;68797;49.782;19.054;2023-04-10T00:28:40;97954.28;;;6.82;82.23
79331;BME280;68797;49.782;19.054;2023-04-10T00:31:09;97936.72;;;6.75;82.10
79331;BME280;68797;49.782;19.054;2023-04-10T00:33:35;97942.84;;;6.83;82.41
79331;BME280;68797;49.782;19.054;2023-04-10T00:36:02;97948.94;;;6.94;81.86
79331;BME280;68797;49.782;19.054;2023-04-10T00:38:29;97939.25;;;6.93;82.10
79331;BME280;68797;49.782;19.054;2023-04-10T00:40:55;97937.50;;;6.92;81.34
79331;BME280;68797;49.782;19.054;2023-04-10T00:43:23;97950.66;;;6.96;81.42
79331;BME280;68797;49.782;19.054;2023-04-10T00:45:51;97950.72;;;6.86;82.47
79331;BME280;68797;49.782;19.054;2023-04-10T00:48:18;97949.00;;;6.82;82.01
79331;BME280;68797;49.782;19.054;2023-04-10T00:50:45;97945.50;;;6.80;82.52
79331;BME280;68797;49.782;19.054;2023-04-10T00:53:12;97948.13;;;6.81;82.10
79331;BME280;68797;49.782;19.054;2023-04-10T00:55:40;97950.72;;;6.86;81.76
79331;BME280;68797;49.782;19.054;2023-04-10T00:58:08;97949.88;;;6.84;82.38
79331;BME280;68797;49.782;19.054;2023-04-10T01:00:42;97950.75;;;6.84;82.04
79331;BME280;68797;49.782;19.054;2023-04-10T01:03:10;97958.66;;;6.87;81.82
79331;BME280;68797;49.782;19.054;2023-04-10T01:05:46;97943.72;;;6.83;82.01
79331;BME280;68797;49.782;19.054;2023-04-10T01:17:38;97948.16;;;6.75;81.80
79331;BME280;68797;49.782;19.054;2023-04-10T01:20:14;97961.34;;;6.77;82.06
79331;BME280;68797;49.782;19.054;2023-04-10T01:23:20;97954.25;;;6.85;82.10
79331;BME280;68797;49.782;19.054;2023-04-10T01:26:11;97964.81;;;6.85;81.68
79331;BME280;68797;49.782;19.054;2023-04-10T01:31:28;97948.16;;;6.74;82.08
79331;BME280;68797;49.782;19.054;2023-04-10T01:34:07;97958.69;;;6.75;82.40
79331;BME280;68797;49.782;19.054;2023-04-10T01:36:40;97955.16;;;6.84;82.33
79331;BME280;68797;49.782;19.054;2023-04-10T01:39:09;97963.03;;;6.90;81.56
79331;BME280;68797;49.782;19.054;2023-04-10T01:41:38;97956.91;;;6.88;81.39
79331;BME280;68797;49.782;19.054;2023-04-10T01:44:13;97961.22;;;6.95;81.24
79331;BME280;68797;49.782;19.054;2023-04-10T01:46:41;97959.50;;;6.92;81.46
79331;BME280;68797;49.782;19.054;2023-04-10T01:49:09;97969.16;;;6.93;81.21
79331;BME280;68797;49.782;19.054;2023-04-10T01:51:37;97959.59;;;6.79;81.82
79331;BME280;68797;49.782;19.054;2023-04-10T01:54:09;97966.59;;;6.81;81.75
79331;BME280;68797;49.782;19.054;2023-04-10T01:56:36;97963.09;;;6.78;82.40
79331;BME280;68797;49.782;19.054;2023-04-10T01:59:04;97967.50;;;6.79;82.08
79331;BME280;68797;49.782;19.054;2023-04-10T02:01:31;97961.41;;;6.66;82.60
79331;BME280;68797;49.782;19.054;2023-04-10T02:03:59;97973.72;;;6.65;82.74
79331;BME280;68797;49.782;19.054;2023-04-10T02:09:36;97970.19;;;6.69;83.05
79331;BME280;68797;49.782;19.054;2023-04-10T02:12:09;97954.47;;;6.48;82.72
79331;BME280;68797;49.782;19.054;2023-04-10T02:14:44;97960.56;;;6.58;83.40
79331;BME280;68797;49.782;19.054;2023-04-10T02:17:13;97953.56;;;6.49;83.01
79331;BME280;68797;49.782;19.054;2023-04-10T02:19:42;97976.38;;;6.61;82.95
79331;BME280;68797;49.782;19.054;2023-04-10T02:22:15;97967.59;;;6.60;82.74
79331;BME280;68797;49.782;19.054;2023-04-10T02:24:43;97971.94;;;6.64;82.84
79331;BME280;68797;49.782;19.054;2023-04-10T02:27:12;97963.22;;;6.50;83.03
79331;BME280;68797;49.782;19.054;2023-04-10T02:29:40;97952.72;;;6.46;83.28
79331;BME280;68797;49.782;19.054;2023-04-10T02:32:08;97955.34;;;6.46;83.22
79331;BME280;68797;49.782;19.054;2023-04-10T02:34:36;97952.69;;;6.50;83.15
79331;BME280;68797;49.782;19.054;2023-04-10T02:37:02;97960.56;;;6.59;83.23
79331;BME280;68797;49.782;19.054;2023-04-10T02:39:34;97954.44;;;6.53;83.25
79331;BME280;68797;49.782;19.054;2023-04-10T02:42:03;97964.09;;;6.54;83.06
79331;BME280;68797;49.782;19.054;2023-04-10T02:44:32;97961.53;;;6.35;83.98
79331;BME280;68797;49.782;19.054;2023-04-10T02:47:00;97967.66;;;6.40;84.00
79331;BME280;68797;49.782;19.054;2023-04-10T02:49:33;97972.88;;;6.51;83.55
79331;BME280;68797;49.782;19.054;2023-04-10T02:52:12;97956.19;;;6.55;83.45
79331;BME280;68797;49.782;19.054;2023-04-10T02:54:42;97958.75;;;6.64;82.32
79331;BME280;68797;49.782;19.054;2023-04-10T02:57:09;97954.31;;;6.74;82.01
79331;BME280;68797;49.782;19.054;2023-04-10T02:59:37;97964.84;;;6.79;82.77
79331;BME280;68797;49.782;19.054;2023-04-10T03:02:06;97959.59;;;6.77;81.99
79331;BME280;68797;49.782;19.054;2023-04-10T03:04:39;97959.59;;;6.74;81.77
79331;BME280;68797;49.782;19.054;2023-04-10T03:07:06;97971.94;;;6.63;82.77
79331;BME280;68797;49.782;19.054;2023-04-10T03:09:37;97972.00;;;6.57;83.22
79331;BME280;68797;49.782;19.054;2023-04-10T03:12:03;97952.72;;;6.46;83.12
79331;BME280;68797;49.782;19.054;2023-04-10T03:14:33;97954.47;;;6.42;83.47
79331;BME280;68797;49.782;19.054;2023-04-10T03:17:00;97971.19;;;6.44;84.27
79331;BME280;68797;49.782;19.054;2023-04-10T03:19:27;97955.41;;;6.35;84.08
79331;BME280;68797;49.782;19.054;2023-04-10T03:21:53;97967.72;;;6.28;84.45
79331;BME280;68797;49.782;19.054;2023-04-10T03:24:22;97958.94;;;6.26;84.58
79331;BME280;68797;49.782;19.054;2023-04-10T03:26:50;97945.78;;;6.23;84.89
79331;BME280;68797;49.782;19.054;2023-04-10T03:29:20;97958.03;;;6.36;84.44
79331;BME280;68797;49.782;19.054;2023-04-10T03:31:46;97957.97;;;6.43;83.97
79331;BME280;68797;49.782;19.054;2023-04-10T03:34:12;97965.91;;;6.39;84.00
79331;BME280;68797;49.782;19.054;2023-04-10T03:36:40;97954.50;;;6.44;84.02
79331;BME280;68797;49.782;19.054;2023-04-10T03:39:08;97967.59;;;6.53;83.71
79331;BME280;68797;49.782;19.054;2023-04-10T03:41:35;97964.13;;;6.48;84.00
79331;BME280;68797;49.782;19.054;2023-04-10T03:44:03;97963.28;;;6.44;83.95
79331;BME280;68797;49.782;19.054;2023-04-10T03:46:30;97961.50;;;6.46;84.17
79331;BME280;68797;49.782;19.054;2023-04-10T03:48:59;97966.78;;;6.43;84.41
79331;BME280;68797;49.782;19.054;2023-04-10T03:51:27;97964.16;;;6.38;83.73
79331;BME280;68797;49.782;19.054;2023-04-10T03:53:56;97961.53;;;6.35;84.26
79331;BME280;68797;49.782;19.054;2023-04-10T03:56:24;97964.13;;;6.41;84.26
79331;BME280;68797;49.782;19.054;2023-04-10T03:58:55;97958.88;;;6.38;83.82
79331;BME280;68797;49.782;19.054;2023-04-10T04:01:22;97963.25;;;6.43;83.90
79331;BME280;68797;49.782;19.054;2023-04-10T04:04:14;97965.88;;;6.49;83.38
79331;BME280;68797;49.782;19.054;2023-04-10T04:07:00;97973.78;;;6.49;83.95
79331;BME280;68797;49.782;19.054;2023-04-10T04:09:46;97970.25;;;6.54;83.31
79331;BME280;68797;49.782;19.054;2023-04-10T04:12:31;97954.50;;;6.44;82.90
79331;BME280;68797;49.782;19.054;2023-04-10T04:15:03;97967.63;;;6.56;82.84
79331;BME280;68797;49.782;19.054;2023-04-10T04:17:52;97965.84;;;6.53;82.99
79331;BME280;68797;49.782;19.054;2023-04-10T04:21:03;97965.84;;;6.53;83.33
79331;BME280;68797;49.782;19.054;2023-04-10T04:23:46;97965.00;;;6.47;83.50
79331;BME280;68797;49.782;19.054;2023-04-10T04:26:51;97960.63;;;6.46;83.08
79331;BME280;68797;49.782;19.054;2023-04-10T04:29:37;97956.22;;;6.46;82.91
79331;BME280;68797;49.782;19.054;2023-04-10T04:32:13;97980.78;;;6.56;83.45
79331;BME280;68797;49.782;19.054;2023-04-10T04:35:00;97983.44;;;6.51;83.13
79331;BME280;68797;49.782;19.054;2023-04-10T04:37:58;97975.59;;;6.37;84.49
79331;BME280;68797;49.782;19.054;2023-04-10T04:40:46;97981.78;;;6.20;84.96
79331;BME280;68797;49.782;19.054;2023-04-10T04:43:41;97983.56;;;6.18;85.70
79331;BME280;68797;49.782;19.054;2023-04-10T04:46:38;97974.81;;;6.11;85.60
79331;BME280;68797;49.782;19.054;2023-04-10T04:49:21;97973.06;;;6.02;85.97
79331;BME280;68797;49.782;19.054;2023-04-10T04:52:08;97986.22;;;6.07;87.00
79331;BME280;68797;49.782;19.054;2023-04-10T04:54:58;97997.63;;;6.14;86.23
79331;BME280;68797;49.782;19.054;2023-04-10T04:57:54;97990.63;;;6.03;87.14
79331;BME280;68797;49.782;19.054;2023-04-10T05:01:00;97994.13;;;6.11;86.73
79331;BME280;68797;49.782;19.054;2023-04-10T05:03:44;97994.13;;;6.05;87.35
79331;BME280;68797;49.782;19.054;2023-04-10T05:06:37;97995.03;;;6.03;87.53
79331;BME280;68797;49.782;19.054;2023-04-10T05:09:15;97992.41;;;5.92;87.76
79331;BME280;68797;49.782;19.054;2023-04-10T05:12:00;97990.63;;;6.05;87.58
79331;BME280;68797;49.782;19.054;2023-04-10T05:14:47;98005.53;;;6.09;86.93
79331;BME280;68797;49.782;19.054;2023-04-10T05:17:41;98002.91;;;6.09;87.32
79331;BME280;68797;49.782;19.054;2023-04-10T05:20:34;98012.50;;;6.28;86.22
79331;BME280;68797;49.782;19.054;2023-04-10T05:23:28;98004.66;;;6.11;86.98
79331;BME280;68797;49.782;19.054;2023-04-10T05:26:15;98003.75;;;6.19;86.96
79331;BME280;68797;49.782;19.054;2023-04-10T05:29:00;98007.28;;;6.13;86.98
79331;BME280;68797;49.782;19.054;2023-04-10T05:31:45;98010.75;;;6.29;86.54
79331;BME280;68797;49.782;19.054;2023-04-10T05:34:19;98016.03;;;6.33;86.46
79331;BME280;68797;49.782;19.054;2023-04-10T05:37:05;98010.72;;;6.44;86.03
79331;BME280;68797;49.782;19.054;2023-04-10T05:39:54;98003.69;;;6.40;85.80
79331;BME280;68797;49.782;19.054;2023-04-10T05:42:42;98019.50;;;6.43;85.94
79331;BME280;68797;49.782;19.054;2023-04-10T05:45:26;98019.53;;;6.29;86.22
79331;BME280;68797;49.782;19.054;2023-04-10T05:48:15;98007.19;;;6.40;86.08
79331;BME280;68797;49.782;19.054;2023-04-10T05:51:11;98019.50;;;6.43;86.19
79331;BME280;68797;49.782;19.054;2023-04-10T05:53:58;98011.59;;;6.46;85.62
79331;BME280;68797;49.782;19.054;2023-04-10T05:56:40;98005.41;;;6.50;85.33
79331;BME280;68797;49.782;19.054;2023-04-10T05:59:26;98013.31;;;6.55;85.38
79331;BME280;68797;49.782;19.054;2023-04-10T06:02:00;98024.69;;;6.67;84.86
79331;BME280;68797;49.782;19.054;2023-04-10T06:04:27;98006.22;;;6.64;85.24
79331;BME280;68797;49.782;19.054;2023-04-10T06:06:56;98015.00;;;6.65;85.34
79331;BME280;68797;49.782;19.054;2023-04-10T06:09:29;98015.91;;;6.67;85.43
79331;BME280;68797;49.782;19.054;2023-04-10T06:11:56;98009.72;;;6.69;85.73
79331;BME280;68797;49.782;19.054;2023-04-10T06:14:22;98022.88;;;6.76;86.02
79331;BME280;68797;49.782;19.054;2023-04-10T06:16:50;98005.34;;;6.67;84.90
79331;BME280;68797;49.782;19.054;2023-04-10T06:19:17;98008.88;;;6.63;85.31
79331;BME280;68797;49.782;19.054;2023-04-10T06:21:44;98016.75;;;6.70;86.13
79331;BME280;68797;49.782;19.054;2023-04-10T06:24:15;97998.25;;;6.75;85.69
79331;BME280;68797;49.782;19.054;2023-04-10T06:26:48;98012.34;;;6.79;85.32
79331;BME280;68797;49.782;19.054;2023-04-10T06:29:15;98007.13;;;6.66;85.26
79331;BME280;68797;49.782;19.054;2023-04-10T06:31:43;98010.63;;;6.68;85.26
79331;BME280;68797;49.782;19.054;2023-04-10T06:34:10;98003.59;;;6.63;86.17
79331;BME280;68797;49.782;19.054;2023-04-10T06:36:47;98008.91;;;6.54;86.22
79331;BME280;68797;49.782;19.054;2023-04-10T06:39:15;97994.88;;;6.47;85.88
79331;BME280;68797;49.782;19.054;2023-04-10T06:41:46;98003.69;;;6.46;86.27
79331;BME280;68797;49.782;19.054;2023-04-10T06:44:26;98002.81;;;6.38;86.72
79331;BME280;68797;49.782;19.054;2023-04-10T06:46:53;98019.53;;;6.29;86.47
79331;BME280;68797;49.782;19.054;2023-04-10T06:49:20;98008.97;;;6.40;86.94
79331;BME280;68797;49.782;19.054;2023-04-10T06:51:47;98003.66;;;6.48;86.77
79331;BME280;68797;49.782;19.054;2023-04-10T06:54:15;98016.81;;;6.57;85.96
79331;BME280;68797;49.782;19.054;2023-04-10T06:56:42;98010.66;;;6.59;85.55
79331;BME280;68797;49.782;19.054;2023-04-10T06:59:08;98016.78;;;6.66;85.68
79331;BME280;68797;49.782;19.054;2023-04-10T07:01:36;98024.66;;;6.70;85.84
79331;BME280;68797;49.782;19.054;2023-04-10T07:04:05;98015.88;;;6.68;85.54
79331;BME280;68797;49.782;19.054;2023-04-10T07:06:33;98026.38;;;6.81;85.32
79331;BME280;68797;49.782;19.054;2023-04-10T07:09:01;98024.66;;;6.74;85.26
79331;BME280;68797;49.782;19.054;2023-04-10T07:11:29;98027.28;;;6.77;85.60
79331;BME280;68797;49.782;19.054;2023-04-10T07:13:58;98014.13;;;6.63;85.68
79331;BME280;68797;49.782;19.054;2023-04-10T07:16:25;98010.63;;;6.61;85.93
79331;BME280;68797;49.782;19.054;2023-04-10T07:18:52;98022.94;;;6.62;85.57
79331;BME280;68797;49.782;19.054;2023-04-10T07:21:22;98012.38;;;6.65;84.79
79331;BME280;68797;49.782;19.054;2023-04-10T07:23:50;98015.03;;;6.62;85.50
79331;BME280;68797;49.782;19.054;2023-04-10T07:26:20;98030.78;;;6.80;85.01
79331;BME280;68797;49.782;19.054;2023-04-10T07:28:51;98019.38;;;6.74;85.16
79331;BME280;68797;49.782;19.054;2023-04-10T07:31:18;98036.94;;;6.75;84.66
79331;BME280;68797;49.782;19.054;2023-04-10T07:33:46;98040.47;;;6.75;85.08
79331;BME280;68797;49.782;19.054;2023-04-10T07:36:16;98033.47;;;6.63;84.92
79331;BME280;68797;49.782;19.054;2023-04-10T07:38:44;98028.22;;;6.66;84.77
79331;BME280;68797;49.782;19.054;2023-04-10T07:41:12;98028.19;;;6.63;85.57
79331;BME280;68797;49.782;19.054;2023-04-10T07:43:41;98016.91;;;6.35;86.53
79331;BME280;68797;49.782;19.054;2023-04-10T07:46:09;98034.50;;;6.23;87.21
79331;BME280;68797;49.782;19.054;2023-04-10T11:22:04;97975.84;;;7.42;86.51
79331;BME280;68797;49.782;19.054;2023-04-10T11:25:07;97970.53;;;7.46;86.82
79331;BME280;68797;49.782;19.054;2023-04-10T11:27:46;97966.03;;;7.57;87.04
79331;BME280;68797;49.782;19.054;2023-04-10T11:30:27;97968.50;;;7.79;85.97
79331;BME280;68797;49.782;19.054;2023-04-10T11:32:59;97954.41;;;7.80;85.24
79331;BME280;68797;49.782;19.054;2023-04-10T11:35:27;97959.69;;;7.80;86.00
79331;BME280;68797;49.782;19.054;2023-04-10T11:38:18;97949.06;;;7.84;86.06
79331;BME280;68797;49.782;19.054;2023-04-10T11:41:01;97934.94;;;7.85;85.76
79331;BME280;68797;49.782;19.054;2023-04-10T11:43:50;97935.69;;;8.00;85.55
79331;BME280;68797;49.782;19.054;2023-04-10T11:46:18;97941.78;;;8.05;84.81
79331;BME280;68797;49.782;19.054;2023-04-10T11:48:46;97948.00;;;8.02;85.03
79331;BME280;68797;49.782;19.054;2023-04-10T11:51:13;97940.19;;;7.90;85.54
79331;BME280;68797;49.782;19.054;2023-04-10T11:53:41;97940.22;;;7.89;86.18
79331;BME280;68797;49.782;19.054;2023-04-10T11:56:18;97935.91;;;7.80;86.39
79331;BME280;68797;49.782;19.054;2023-04-10T11:58:50;97943.81;;;7.81;85.92
79331;BME280;68797;49.782;19.054;2023-04-10T12:01:22;97924.38;;;7.87;86.51
79331;BME280;68797;49.782;19.054;2023-04-10T12:03:50;97927.78;;;7.98;86.08
79331;BME280;68797;49.782;19.054;2023-04-10T12:06:18;97918.81;;;8.11;86.29
79331;BME280;68797;49.782;19.054;2023-04-10T12:08:47;97921.28;;;8.27;85.27
79331;BME280;68797;49.782;19.054;2023-04-10T12:11:20;97922.22;;;8.20;84.59
79331;BME280;68797;49.782;19.054;2023-04-10T12:13:56;97918.69;;;8.22;85.84
79331;BME280;68797;49.782;19.054;2023-04-10T12:16:25;97914.25;;;8.24;84.38
79331;BME280;68797;49.782;19.054;2023-04-10T12:18:57;97915.94;;;8.34;84.40
79331;BME280;68797;49.782;19.054;2023-04-10T12:21:24;97915.00;;;8.38;83.65
79331;BME280;68797;49.782;19.054;2023-04-10T12:23:52;97893.88;;;8.34;83.57
79331;BME280;68797;49.782;19.054;2023-04-10T12:26:19;97898.34;;;8.29;85.17
79331;BME280;68797;49.782;19.054;2023-04-10T12:28:51;97900.09;;;8.28;85.67
79331;BME280;68797;49.782;19.054;2023-04-10T12:31:26;97906.25;;;8.29;85.49
79331;BME280;68797;49.782;19.054;2023-04-10T12:33:54;97897.56;;;8.22;85.29
79331;BME280;68797;49.782;19.054;2023-04-10T12:36:27;97891.38;;;8.23;85.71
79331;BME280;68797;49.782;19.054;2023-04-10T12:38:57;97895.81;;;8.21;85.60
79331;BME280;68797;49.782;19.054;2023-04-10T12:41:26;97878.94;;;8.30;86.29
79331;BME280;68797;49.782;19.054;2023-04-10T12:44:07;97877.81;;;8.51;85.79
79331;BME280;68797;49.782;19.054;2023-04-10T12:46:34;97864.47;;;8.58;85.22
79331;BME280;68797;49.782;19.054;2023-04-10T12:49:16;97871.13;;;8.87;84.54
79331;BME280;68797;49.782;19.054;2023-04-10T12:51:51;97871.88;;;8.95;84.82
79331;BME280;68797;49.782;19.054;2023-04-10T12:54:33;97856.97;;;8.89;83.61
79331;BME280;68797;49.782;19.054;2023-04-10T12:57:02;97870.22;;;8.88;83.73
79331;BME280;68797;49.782;19.054;2023-04-10T12:59:49;97863.00;;;8.99;84.20
79331;BME280;68797;49.782;19.054;2023-04-10T13:02:16;97850.50;;;9.06;84.52
79331;BME280;68797;49.782;19.054;2023-04-10T13:04:45;97858.41;;;9.10;83.96
79331;BME280;68797;49.782;19.054;2023-04-10T13:07:11;97849.59;;;9.07;83.66
79331;BME280;68797;49.782;19.054;2023-04-10T13:09:39;97844.47;;;8.97;84.01
79331;BME280;68797;49.782;19.054;2023-04-10T13:12:06;97850.34;;;9.16;83.98
79331;BME280;68797;49.782;19.054;2023-04-10T13:14:33;97838.66;;;9.28;84.15
79331;BME280;68797;49.782;19.054;2023-04-10T13:17:00;97833.25;;;9.36;82.70
79331;BME280;68797;49.782;19.054;2023-04-10T13:19:27;97832.03;;;9.52;81.44
79331;BME280;68797;49.782;19.054;2023-04-10T13:21:54;97824.09;;;9.53;81.20
79331;BME280;68797;49.782;19.054;2023-04-10T13:24:21;97820.44;;;9.59;81.92
79331;BME280;68797;49.782;19.054;2023-04-10T13:26:47;97817.28;;;9.85;81.55
79331;BME280;68797;49.782;19.054;2023-04-10T13:29:17;97820.63;;;9.95;80.73
79331;BME280;68797;49.782;19.054;2023-04-10T13:31:44;97820.13;;;9.76;79.16
79331;BME280;68797;49.782;19.054;2023-04-10T13:34:12;97814.91;;;9.71;79.50
79331;BME280;68797;49.782;19.054;2023-04-10T13:36:39;97820.25;;;9.70;79.21
79331;BME280;68797;49.782;19.054;2023-04-10T13:39:07;97820.38;;;9.62;79.13
79331;BME280;68797;49.782;19.054;2023-04-10T13:41:34;97808.88;;;9.65;78.87
79331;BME280;68797;49.782;19.054;2023-04-10T13:44:04;97804.66;;;9.54;78.82
79331;BME280;68797;49.782;19.054;2023-04-10T13:46:32;97790.66;;;9.46;78.72
79331;BME280;68797;49.782;19.054;2023-04-10T13:48:59;97791.63;;;9.41;79.22
79331;BME280;68797;49.782;19.054;2023-04-10T13:51:26;97788.09;;;9.42;79.33
79331;BME280;68797;49.782;19.054;2023-04-10T13:53:55;97787.88;;;9.52;79.34
79331;BME280;68797;49.782;19.054;2023-04-10T13:56:22;97784.38;;;9.52;79.35
79331;BME280;68797;49.782;19.054;2023-04-10T13:58:49;97789.53;;;9.59;79.13
79331;BME280;68797;49.782;19.054;2023-04-10T14:01:17;97768.16;;;9.69;78.64
79331;BME280;68797;49.782;19.054;2023-04-10T14:03:43;97762.59;;;9.81;78.94
79331;BME280;68797;49.782;19.054;2023-04-10T14:06:11;97765.09;;;9.88;78.07
79331;BME280;68797;49.782;19.054;2023-04-10T14:08:37;97759.78;;;9.88;77.47
79331;BME280;68797;49.782;19.054;2023-04-10T14:11:05;97757.19;;;9.85;77.20
79331;BME280;68797;49.782;19.054;2023-04-10T15:53:32;97700.94;;;10.13;74.02
79331;BME280;68797;49.782;19.054;2023-04-10T16:06:23;97676.19;;;10.50;74.20
79331;BME280;68797;49.782;19.054;2023-04-10T16:10:21;97685.72;;;10.58;74.92
79331;BME280;68797;49.782;19.054;2023-04-10T16:13:39;97680.31;;;10.61;74.24
79331;BME280;68797;49.782;19.054;2023-04-10T16:26:57;97669.28;;;10.78;72.36
79331;BME280;68797;49.782;19.054;2023-04-10T16:29:24;97666.91;;;10.67;70.81
79331;BME280;68797;49.782;19.054;2023-04-10T16:31:51;97659.03;;;10.64;71.52
79331;BME280;68797;49.782;19.054;2023-04-10T16:34:17;97655.34;;;10.70;71.93
79331;BME280;68797;49.782;19.054;2023-04-10T16:36:44;97643.75;;;10.72;71.84
79331;BME280;68797;49.782;19.054;2023-04-10T16:39:13;97643.94;;;10.66;73.05
79331;BME280;68797;49.782;19.054;2023-04-10T16:41:40;97645.00;;;10.59;73.65
79331;BME280;68797;49.782;19.054;2023-04-10T16:44:09;97642.53;;;10.52;72.50
79331;BME280;68797;49.782;19.054;2023-04-10T16:46:36;97635.56;;;10.47;72.55
79331;BME280;68797;49.782;19.054;2023-04-10T16:49:05;97640.91;;;10.46;73.72
79331;BME280;68797;49.782;19.054;2023-04-10T16:51:34;97642.81;;;10.41;74.79
79331;BME280;68797;49.782;19.054;2023-04-10T16:54:01;97631.38;;;10.39;74.99
79331;BME280;68797;49.782;19.054;2023-04-10T16:56:33;97630.72;;;10.29;75.28
79331;BME280;68797;49.782;19.054;2023-04-10T16:59:01;97642.19;;;10.31;75.97
79331;BME280;68797;49.782;19.054;2023-04-10T17:01:28;97643.09;;;10.29;75.80
79331;BME280;68797;49.782;19.054;2023-04-10T17:03:56;97637.84;;;10.27;76.45
79331;BME280;68797;49.782;19.054;2023-04-10T17:06:26;97651.88;;;10.31;76.74
79331;BME280;68797;49.782;19.054;2023-04-10T17:08:53;97637.06;;;10.24;76.21
79331;BME280;68797;49.782;19.054;2023-04-10T17:11:20;97623.84;;;10.21;76.50
79331;BME280;68797;49.782;19.054;2023-04-10T17:13:49;97633.63;;;10.17;76.57
79331;BME280;68797;49.782;19.054;2023-04-10T17:19:39;97644.66;;;10.00;77.07
79331;BME280;68797;49.782;19.054;2023-04-10T17:22:36;97636.09;;;9.89;77.85
79331;BME280;68797;49.782;19.054;2023-04-10T17:35:13;97654.00;;;9.78;78.94
79331;BME280;68797;49.782;19.054;2023-04-10T18:23:22;97651.28;;;8.96;82.62
79331;BME280;68797;49.782;19.054;2023-04-10T18:25:53;97655.69;;;8.97;81.99
79331;BME280;68797;49.782;19.054;2023-04-10T18:28:22;97650.56;;;8.89;81.85
79331;BME280;68797;49.782;19.054;2023-04-10T18:30:50;97657.72;;;8.83;82.19
79331;BME280;68797;49.782;19.054;2023-04-10T18:33:19;97640.34;;;8.69;82.20
79331;BME280;68797;49.782;19.054;2023-04-10T18:35:52;97640.41;;;8.66;82.41
79331;BME280;68797;49.782;19.054;2023-04-10T18:38:22;97644.06;;;8.58;82.40
79331;BME280;68797;49.782;19.054;2023-04-10T18:40:49;97637.97;;;8.53;81.66
79331;BME280;68797;49.782;19.054;2023-04-10T18:43:16;97655.81;;;8.43;82.38
79331;BME280;68797;49.782;19.054;2023-04-10T18:45:43;97662.09;;;8.31;82.88
79331;BME280;68797;49.782;19.054;2023-04-10T18:48:10;97655.34;;;8.15;83.35
79331;BME280;68797;49.782;19.054;2023-04-10T18:50:37;97648.53;;;8.00;83.35
79331;BME280;68797;49.782;19.054;2023-04-10T18:53:04;97659.91;;;8.05;83.69
79331;BME280;68797;49.782;19.054;2023-04-10T18:55:31;97645.03;;;7.97;83.36
79331;BME280;68797;49.782;19.054;2023-04-10T18:57:58;97640.94;;;7.79;84.37
79331;BME280;68797;49.782;19.054;2023-04-10T19:00:25;97644.34;;;7.85;84.32
79331;BME280;68797;49.782;19.054;2023-04-10T19:02:52;97638.28;;;7.79;83.89
79331;BME280;68797;49.782;19.054;2023-04-10T19:05:20;97646.25;;;7.74;84.44
79331;BME280;68797;49.782;19.054;2023-04-10T19:07:47;97638.34;;;7.74;83.94
79331;BME280;68797;49.782;19.054;2023-04-10T19:10:14;97635.72;;;7.73;83.03
79331;BME280;68797;49.782;19.054;2023-04-10T19:12:41;97630.44;;;7.73;84.26
79331;BME280;68797;49.782;19.054;2023-04-10T19:15:10;97622.53;;;7.71;83.85
79331;BME280;68797;49.782;19.054;2023-04-10T19:17:37;97617.28;;;7.70;83.70
79331;BME280;68797;49.782;19.054;2023-04-10T19:20:05;97618.09;;;7.75;83.62
79331;BME280;68797;49.782;19.054;2023-04-10T19:22:31;97621.53;;;7.80;84.10
79331;BME280;68797;49.782;19.054;2023-04-10T19:25:00;97611.16;;;7.68;84.18
79331;BME280;68797;49.782;19.054;2023-04-10T19:27:27;97616.34;;;7.74;84.12
79331;BME280;68797;49.782;19.054;2023-04-10T19:29:55;97613.75;;;7.71;84.78
79331;BME280;68797;49.782;19.054;2023-04-10T19:32:21;97613.75;;;7.71;83.93
79331;BME280;68797;49.782;19.054;2023-04-10T19:34:48;97612.97;;;7.63;84.65
79331;BME280;68797;49.782;19.054;2023-04-10T19:37:19;97619.25;;;7.57;85.15
79331;BME280;68797;49.782;19.054;2023-04-10T19:39:47;97623.59;;;7.60;85.55
79331;BME280;68797;49.782;19.054;2023-04-10T19:42:14;97621.88;;;7.57;85.50
79331;BME280;68797;49.782;19.054;2023-04-10T19:44:41;97633.22;;;7.65;85.38
79331;BME280;68797;49.782;19.054;2023-04-10T19:47:08;97652.63;;;7.61;84.97
79331;BME280;68797;49.782;19.054;2023-04-10T19:49:35;97661.38;;;7.66;84.71
79331;BME280;68797;49.782;19.054;2023-04-10T19:52:02;97665.66;;;7.73;84.69
79331;BME280;68797;49.782;19.054;2023-04-10T19:54:30;97656.75;;;7.80;84.66
79331;BME280;68797;49.782;19.054;2023-04-10T19:56:57;97650.47;;;7.89;84.56
79331;BME280;68797;49.782;19.054;2023-04-10T19:59:24;97645.94;;;7.96;85.55
79331;BME280;68797;49.782;19.054;2023-04-10T20:01:51;97640.56;;;8.03;84.89
79331;BME280;68797;49.782;19.054;2023-04-10T20:04:18;97645.72;;;8.11;85.16
79331;BME280;68797;49.782;19.054;2023-04-10T20:06:46;97629.94;;;8.06;85.55
79331;BME280;68797;49.782;19.054;2023-04-10T20:09:14;97628.13;;;8.08;84.94
79331;BME280;68797;49.782;19.054;2023-04-10T20:11:41;97616.84;;;7.97;85.60
79331;BME280;68797;49.782;19.054;2023-04-10T20:14:09;97626.72;;;7.88;85.53
79331;BME280;68797;49.782;19.054;2023-04-10T20:16:36;97616.38;;;7.72;85.46